Aérodrome :
LOGIN :

S'inscrire | Disclaimer

   EN    FR    IT 

 










Légende :    VFR   VFR Marginal   IFR   IFR Intensif   IFR Très Intensif
Visi : 
Plafond : 
>= 8 km
>= 3000ft
5 à 8 km
1000 à 3000 ft
1500m à 5 km
500 à 1000 ft
800 à 1500m
200 à 500 ft
< 800m
< 200 ft
Symboles :   Orages  Brouillard  Fortes neiges  Fortes précipitations  Vent > 20 kt
SIGMETs :   Divers  Orages  Givrage  Turbulence  Onde Orograph.  Cendres Volcan.







- Altitude de l'aérodrome : 100 ft


EBDT - Schaffen

DERNIER METAR :
  • 240837Z AUTO 35005KT 9999 FEW017/// SCT022/// BKN033/// 15/10 Q1024 WHT

METARs EXPIRÉS :
  • 240825Z AUTO 36006KT 9999 FEW017/// BKN032/// OVC100/// 15/11 Q1024 BLU
  • 240755Z AUTO 36007KT 9999 FEW013/// BKN027/// BKN100/// 15/11 Q1024 BLU
  • 240725Z AUTO 33005KT 9999 SCT011/// BKN016/// BKN023/// 14/11 Q1024 GRN
  • 240722Z AUTO 33005KT 9000 FEW011/// SCT014/// BKN018/// 14/11 Q1024 GRN
  • 240655Z AUTO 34006KT 9999 SCT021/// OVC025/// 14/11 Q1024 WHT
  • 240625Z AUTO 32006KT 9000 FEW018/// BKN021/// 13/11 Q1024 WHT
  • 240555Z AUTO 31005KT 9000 FEW016/// BKN019/// 13/11 Q1024 WHT
  • 240552Z AUTO 30004KT 9000 FEW014/// BKN018/// BKN021/// 13/11 Q1024 WHT

Prévision TAF périmée.
Pas de NOTAMs connus pour ce terrain.



MET'MAP, la Météo Aéronautique d'un coup d'oeil ! - Copyright ORBIFLY Décembre 2007 - Disclaimer

ORBIFLY MET'MAP TEAM :

Programmation & Développement : Alexandra Zaïnal
Conception & Développement : Baudouin d'Aumeries
Co-Programmation & Développement : Marc-Olivier Méhu
Soutien technique & logistique : Manuel Goepfert

Contact : metmap@orbifly.com




SOURCES & CREDITS :

   NOAA